| Date | Time | Temp. (oF) | Dew Point (oF) | Rel. Hum. (%) | Press. (in.) | Wind Dir. | Wind Speed (mph) | Hourly Rainfall (in.) |
|
|---|---|---|---|---|---|---|---|---|---|
| 1 | 11/26 | 00:00 | 38 | 30 | 74 | 29.78 | SW | 8 | 0.00 |
| 2 | 11/25 | 23:00 | 37 | 28 | 72 | 29.78 | SSW | 4 | 0.00 |
| 3 | 11/25 | 22:00 | 36 | 28 | 73 | 29.78 | SW | 7 | 0.00 |
| 4 | 11/25 | 21:00 | 36 | 28 | 74 | 29.78 | SSW | 4 | 0.00 |
| 5 | 11/25 | 20:00 | 37 | 29 | 74 | 29.79 | SSW | 4 | 0.00 |
| 6 | 11/25 | 19:00 | 37 | 30 | 77 | 29.79 | SSW | 4 | 0.00 |
| 7 | 11/25 | 18:00 | 37 | 31 | 79 | 29.78 | SSW | 4 | 0.00 |
| 8 | 11/25 | 17:00 | 38 | 30 | 75 | 29.77 | WSW | 1 | 0.00 |
| 9 | 11/25 | 16:00 | 41 | 30 | 65 | 29.75 | WSW | 9 | 0.00 |
| 10 | 11/25 | 15:00 | 44 | 28 | 54 | 29.73 | WSW | 5 | 0.00 |
| 11 | 11/25 | 14:00 | 44 | 26 | 51 | 29.71 | WSW | 9 | 0.00 |
| 12 | 11/25 | 13:00 | 44 | 26 | 50 | 29.72 | WNW | 6 | 0.00 |
| 13 | 11/25 | 12:00 | 44 | 29 | 56 | 29.73 | WSW | 4 | 0.00 |
| 14 | 11/25 | 11:00 | 43 | 31 | 64 | 29.75 | SSW | 7 | 0.00 |
| 15 | 11/25 | 10:00 | 42 | 33 | 73 | 29.76 | W | 13 | 0.00 |
| 16 | 11/25 | 09:00 | 41 | 38 | 89 | 29.76 | WSW | 6 | 0.00 |
| 17 | 11/25 | 08:00 | 38 | 37 | 100 | 29.76 | SSW | 4 | 0.00 |
| 18 | 11/25 | 07:00 | 39 | 38 | 99 | 29.77 | SSW | 0 | 0.00 |
| 19 | 11/25 | 06:00 | 39 | 38 | 97 | 29.76 | NW | 3 | 0.04 |
| 20 | 11/25 | 05:00 | 41 | 41 | 100 | 29.75 | WNW | 0 | 0.00 |
| 21 | 11/25 | 04:00 | 41 | 41 | 100 | 29.73 | SW | 4 | 0.00 |
| 22 | 11/25 | 03:00 | 41 | 41 | 100 | 29.74 | S | 0 | 0.01 |
| 23 | 11/25 | 02:00 | 41 | 40 | 99 | 29.77 | SSW | 4 | 0.06 |
| 24 | 11/25 | 01:00 | 41 | 39 | 96 | 29.77 | S | 5 | 0.00 |